Mary Rose Brusco — WDE2412 — position and weather

sailwx.info

Track history (hours):
 
Tides and Currents Weather Stations Pressure Air Temp Water Temp Dewpoint Dewpoint Depression Visibility Wind Speed Wind Dir Waves Ship Positions

Mary Rose Brusco

Owner: Brusco Tug & Barge, Inc., Longview, WA. More information available from US FCC via Universal Licensing System and Coast Guard Vessel Documentation Center.

Last reported at 2017-Jan-11 19:18 UTC. Time now 2017-Jan-17 02:40 UTC.
Position N 46°05' W 122°56'.

Length 20 m; draft 3 m.

Type: Fishing. MMSI: 367324840.

Date/timePositionNaut miles runAvg speedWind from/ knotsBaromVisibWave heightAir tempDewpointWater temp
2017-Jan-11 19:18N 46°05' W 122°56'0 0.0
2017-Jan-11 18:33N 46°05' W 122°56'7 6.9
2017-Jan-11 17:33N 46°09' W 123°04'7 7.1
2017-Jan-11 16:33N 46°10' W 123°14'7 7.1
2017-Jan-11 15:33N 46°10' W 123°24'3 2.5
2017-Jan-11 14:34N 46°12' W 123°23'  
2017-Jan-05 14:33N 46°12' W 123°23'5 4.8
2017-Jan-05 13:34N 46°16' W 123°27'9 9.3
2017-Jan-05 12:34N 46°15' W 123°41'10 9.8
2017-Jan-05 11:34N 46°11' W 123°54'9 9.0
2017-Jan-05 10:34N 46°14' W 124°06'6 6.3
2017-Jan-05 09:33N 46°19' W 124°12'8 8.4
2017-Jan-05 08:34N 46°27' W 124°14'9 9.2
2017-Jan-05 07:33N 46°37' W 124°14'9 9.3
2017-Jan-05 06:34N 46°46' W 124°14'  
Track history (hours):
 
Tides and Currents Weather Stations Pressure Air Temp Water Temp Dewpoint Dewpoint Depression Visibility Wind Speed Wind Dir Waves Ship Positions

Mary Rose Brusco

Owner: Brusco Tug & Barge, Inc., Longview, WA. More information available from US FCC via Universal Licensing System and Coast Guard Vessel Documentation Center.

Last reported at 2017-Jan-11 19:18 UTC. Time now 2017-Jan-17 02:40 UTC.
Position N 46°05' W 122°56'.

Length 20 m; draft 3 m.

Type: Fishing. MMSI: 367324840.

Date/timePositionNaut miles runAvg speedWind from/ knotsBaromVisibWave heightAir tempDewpointWater temp
2017-Jan-11 19:18N 46°05' W 122°56'0 0.0
2017-Jan-11 18:33N 46°05' W 122°56'7 6.9
2017-Jan-11 17:33N 46°09' W 123°04'7 7.1
2017-Jan-11 16:33N 46°10' W 123°14'7 7.1
2017-Jan-11 15:33N 46°10' W 123°24'3 2.5
2017-Jan-11 14:34N 46°12' W 123°23'  
2017-Jan-05 14:33N 46°12' W 123°23'5 4.8
2017-Jan-05 13:34N 46°16' W 123°27'9 9.3
2017-Jan-05 12:34N 46°15' W 123°41'10 9.8
2017-Jan-05 11:34N 46°11' W 123°54'9 9.0
2017-Jan-05 10:34N 46°14' W 124°06'6 6.3
2017-Jan-05 09:33N 46°19' W 124°12'8 8.4
2017-Jan-05 08:34N 46°27' W 124°14'9 9.2
2017-Jan-05 07:33N 46°37' W 124°14'9 9.3
2017-Jan-05 06:34N 46°46' W 124°14'  

Dump ship's entire track history